Time;durP1;ratioP1;P1;durP2;ratioP2;P2;SDS_P1;SDS_P2;PMS_P1;PMS_P2;Temp;Humidity;BMP_temperature;BMP_pressure;BME280_temperature;BME280_humidity;BME280_pressure;Samples;Min_cycle;Max_cycle;Signal;HPM_P1;HPM_P2
2023/11/01 00:00:14;;;;;;;;;11.00;9.50;;;;;19.61;69.67;100829.00;146611;670;46013;-67
2023/11/01 00:03:13;;;;;;;;;12.50;10.75;;;;;19.66;70.10;100817.69;146615;650;46020;-67
2023/11/01 00:06:28;;;;;;;;;13.67;9.67;;;;;19.70;69.01;100825.69;146605;566;47015;-67
2023/11/01 00:09:22;;;;;;;;;8.00;7.67;;;;;19.75;69.32;100826.66;146613;586;47010;-68
2023/11/01 00:12:22;;;;;;;;;7.33;7.33;;;;;19.78;68.60;100838.94;146611;587;46012;-67
2023/11/01 00:15:14;;;;;;;;;9.00;9.00;;;;;19.77;68.90;100838.06;146607;601;46020;-69
2023/11/01 00:18:13;;;;;;;;;10.00;7.33;;;;;19.71;68.75;100823.94;146611;565;46016;-67
2023/11/01 00:21:09;;;;;;;;;12.00;10.00;;;;;19.68;67.86;100811.59;146618;593;46021;-67
2023/11/01 00:24:14;;;;;;;;;11.33;9.67;;;;;19.66;68.80;100786.13;146607;652;46021;-67
2023/11/01 00:27:11;;;;;;;;;8.67;8.00;;;;;19.64;68.41;100791.38;146617;582;46020;-69
2023/11/01 00:30:27;;;;;;;;;8.00;7.00;;;;;17.98;67.19;100506.62;146613;666;46016;-68
2023/11/01 00:33:32;;;;;;;;;6.67;6.67;;;;;19.65;68.16;100810.69;146612;585;46020;-68
2023/11/01 00:36:28;;;;;;;;;7.67;7.33;;;;;19.68;68.55;100808.97;146610;647;46017;-68
2023/11/01 00:39:36;;;;;;;;;9.00;8.33;;;;;19.72;67.95;100807.28;146619;610;46020;-68
2023/11/01 00:42:40;;;;;;;;;7.00;5.33;;;;;19.69;67.06;100787.09;146614;570;46016;-67
2023/11/01 00:45:35;;;;;;;;;7.33;6.00;;;;;19.64;66.74;100772.06;146607;599;46014;-68
2023/11/01 00:48:34;;;;;;;;;6.00;6.00;;;;;19.56;65.80;100764.94;146611;583;46016;-68
2023/11/01 00:51:36;;;;;;;;;6.00;5.00;;;;;19.47;65.59;100749.03;146614;629;47014;-68
2023/11/01 00:54:34;;;;;;;;;4.67;4.67;;;;;19.39;65.14;100746.25;146613;570;46016;-66
2023/11/01 00:57:32;;;;;;;;;6.00;6.00;;;;;19.35;65.53;100746.22;146615;593;47010;-66
2023/11/01 01:00:26;;;;;;;;;6.67;6.67;;;;;19.31;65.29;100733.84;146612;610;46016;-67
2023/11/01 01:03:33;;;;;;;;;;;;;;;;;;;;;
2023/11/01 01:06:34;;;;;;;;;4.67;4.67;;;;;19.27;65.79;100745.19;146612;592;47013;-67
2023/11/01 01:09:32;;;;;;;;;5.00;4.67;;;;;19.30;65.46;100746.13;146615;586;46010;-68
2023/11/01 01:12:36;;;;;;;;;5.67;4.33;;;;;17.64;65.62;100452.66;146612;640;46916;-68
2023/11/01 01:15:29;;;;;;;;;4.67;4.00;;;;;19.36;65.51;100750.59;146603;569;46030;-68
2023/11/01 01:18:42;;;;;;;;;4.00;4.00;;;;;19.39;64.90;100751.53;146610;582;47012;-67
2023/11/01 01:21:40;;;;;;;;;5.67;4.67;;;;;19.35;64.51;100749.72;146614;570;47010;-67
2023/11/01 01:24:33;;;;;;;;;7.00;4.33;;;;;19.25;64.54;100732.03;146608;606;47012;-67
2023/11/01 01:27:25;;;;;;;;;6.00;4.33;;;;;19.17;64.46;100736.28;146613;566;46020;-66
2023/11/01 01:30:26;;;;;;;;;5.67;5.00;;;;;19.12;64.98;100728.28;146613;625;46012;-66
2023/11/01 01:33:37;;;;;;;;;;;;;;;;;;;;;
2023/11/01 01:37:01;;;;;;;;;5.00;4.33;;;;;19.02;64.48;100733.38;146611;589;46017;-66
2023/11/01 01:39:58;;;;;;;;;5.00;3.67;;;;;18.95;64.74;100721.87;146618;653;46020;-66
2023/11/01 01:43:04;;;;;;;;;5.00;5.00;;;;;18.88;64.59;100707.78;146611;572;47015;-66
2023/11/01 01:46:37;;;;;;;;;5.00;5.00;;;;;16.46;65.04;100295.81;146601;574;47010;-67
2023/11/01 01:49:39;;;;;;;;;4.67;3.67;;;;;18.76;64.32;100696.16;146610;564;46032;-67
2023/11/01 01:52:36;;;;;;;;;3.67;3.00;;;;;18.77;64.46;100697.94;146616;630;46021;-66
2023/11/01 01:55:45;;;;;;;;;4.00;3.00;;;;;18.81;63.97;100692.72;146614;584;46012;-67
2023/11/01 01:58:45;;;;;;;;;3.67;3.67;;;;;18.85;63.33;100688.44;146618;588;46021;-66
2023/11/01 02:01:44;;;;;;;;;5.00;5.00;;;;;18.85;63.25;100691.06;146611;598;47037;-66
2023/11/01 02:04:57;;;;;;;;;2.00;2.00;;;;;18.86;64.04;100696.34;146617;588;46010;-67
2023/11/01 02:07:50;;;;;;;;;2.00;2.00;;;;;18.90;63.88;100694.63;146613;579;46034;-66
2023/11/01 02:10:50;;;;;;;;;4.67;4.00;;;;;18.86;63.13;100698.97;146617;596;46020;-66
2023/11/01 02:13:47;;;;;;;;;3.00;3.00;;;;;18.87;63.12;100713.84;146610;662;47013;-67
2023/11/01 02:16:56;;;;;;;;;9.00;6.33;;;;;18.88;63.10;100707.78;146604;604;47010;-66
2023/11/01 02:19:57;;;;;;;;;6.75;5.00;;;;;18.90;63.15;100718.28;146632;579;46013;-66
2023/11/01 02:23:00;;;;;;;;;5.33;4.00;;;;;18.92;63.05;100721.84;146638;581;45010;-66
2023/11/01 02:25:55;;;;;;;;;5.67;5.00;;;;;18.93;63.13;100713.97;146621;649;47016;-66
2023/11/01 02:29:00;;;;;;;;;;;;;;;;;;;;;
2023/11/01 02:32:08;;;;;;;;;5.00;4.00;;;;;18.96;63.05;100702.63;146635;565;46014;-69
2023/11/01 02:35:06;;;;;;;;;3.67;3.67;;;;;18.95;62.93;100697.38;146637;598;45021;-68
2023/11/01 02:38:09;;;;;;;;;4.33;4.00;;;;;18.96;62.91;100693.88;146634;589;46012;-69
2023/11/01 02:41:22;;;;;;;;;10.67;6.67;;;;;18.98;62.19;100689.53;146629;584;47020;-69
2023/11/01 02:44:23;;;;;;;;;6.00;5.00;;;;;18.95;63.19;100692.97;146632;585;46026;-68
2023/11/01 02:47:22;;;;;;;;;6.33;4.33;;;;;19.01;63.40;100700.97;146635;576;46010;-68
2023/11/01 02:50:39;;;;;;;;;5.75;5.00;;;;;19.03;63.66;100704.50;146630;660;46011;-68
2023/11/01 02:53:33;;;;;;;;;9.67;9.00;;;;;19.06;63.50;100709.78;146629;660;46020;-68
2023/11/01 02:56:30;;;;;;;;;7.75;7.25;;;;;19.05;63.64;100705.41;146633;598;46016;-68
2023/11/01 02:59:28;;;;;;;;;9.00;7.00;;;;;19.00;63.83;100701.81;146635;619;46020;-67
2023/11/01 03:02:26;;;;;;;;;9.00;6.33;;;;;18.89;64.30;100698.13;146634;651;45918;-67
2023/11/01 03:05:31;;;;;;;;;5.00;4.00;;;;;18.73;65.71;100693.47;146635;581;45021;-67
2023/11/01 03:08:41;;;;;;;;;6.33;6.00;;;;;18.61;65.88;100704.63;146634;664;45016;-66
2023/11/01 03:11:36;;;;;;;;;7.67;6.67;;;;;18.51;66.61;100707.94;146632;654;46011;-69
2023/11/01 03:14:37;;;;;;;;;6.00;6.00;;;;;18.47;66.97;100691.22;146633;632;45918;-66
2023/11/01 03:17:57;;;;;;;;;9.00;8.50;;;;;16.70;67.01;100406.25;146628;686;46020;-67
2023/11/01 03:21:09;;;;;;;;;8.00;7.75;;;;;18.33;68.07;100696.22;146610;629;46012;-66
2023/11/01 03:24:20;;;;;;;;;9.00;7.25;;;;;18.25;68.17;100700.41;146613;586;46020;-66
2023/11/01 03:27:13;;;;;;;;;8.00;7.50;;;;;18.16;68.81;100695.91;146613;591;46017;-67
2023/11/01 03:30:11;;;;;;;;;8.33;7.33;;;;;18.15;68.82;100695.84;146615;578;47010;-66
2023/11/01 03:33:03;;;;;;;;;10.25;10.25;;;;;18.13;69.64;100695.84;146606;618;47012;-66
2023/11/01 03:36:03;;;;;;;;;12.00;11.00;;;;;18.11;69.87;100705.41;146608;656;46020;-67
2023/11/01 03:39:08;;;;;;;;;12.50;12.50;;;;;18.08;69.26;100707.09;146603;676;46014;-67
2023/11/01 03:42:26;;;;;;;;;14.50;12.50;;;;;18.12;69.49;100709.78;146604;564;47010;-67
2023/11/01 03:45:22;;;;;;;;;16.75;13.00;;;;;18.20;69.83;100702.09;146605;658;46022;-68
2023/11/01 03:48:20;;;;;;;;;13.75;13.25;;;;;18.26;69.29;100698.72;146602;703;47010;-66
2023/11/01 03:51:28;;;;;;;;;11.50;9.50;;;;;16.68;68.10;100439.34;146602;579;46016;-68
2023/11/01 03:54:33;;;;;;;;;14.50;12.75;;;;;16.72;68.28;100449.03;146612;657;46030;-68
2023/11/01 03:57:59;;;;;;;;;14.00;13.25;;;;;17.31;68.69;100553.38;146607;657;46016;-67
2023/11/01 04:00:56;;;;;;;;;14.50;14.50;;;;;18.15;69.18;100714.22;146606;569;47010;-67
2023/11/01 04:04:13;;;;;;;;;13.00;13.00;;;;;16.46;69.43;100443.22;146606;573;46016;-67
2023/11/01 04:07:21;;;;;;;;;;;;;;;;;;;;;
2023/11/01 04:10:23;;;;;;;;;14.00;14.00;;;;;17.87;70.83;100707.53;146605;577;46016;-67
2023/11/01 04:13:15;;;;;;;;;13.00;11.75;;;;;17.74;70.97;100708.97;146606;669;46021;-67
2023/11/01 04:16:11;;;;;;;;;15.00;13.50;;;;;17.71;71.33;100719.38;146607;571;46016;-66
2023/11/01 04:19:17;;;;;;;;;15.50;15.50;;;;;17.62;70.93;100721.81;146601;606;48010;-66
2023/11/01 04:22:16;;;;;;;;;15.50;13.50;;;;;17.58;71.57;100728.72;146606;655;46012;-68
2023/11/01 04:25:14;;;;;;;;;17.75;13.50;;;;;17.56;71.58;100719.91;146608;644;46020;-67
2023/11/01 04:28:18;;;;;;;;;17.50;14.00;;;;;17.56;71.26;100717.31;146606;584;46017;-67
2023/11/01 04:31:21;;;;;;;;;15.25;14.00;;;;;17.60;71.29;100728.75;146607;589;47010;-66
2023/11/01 04:34:34;;;;;;;;;17.00;11.00;;;;;17.66;71.28;100735.03;146607;562;47012;-67
2023/11/01 04:37:29;;;;;;;;;15.75;13.00;;;;;17.66;71.43;100735.03;146609;563;47010;-67
2023/11/01 04:40:32;;;;;;;;;15.00;15.00;;;;;17.62;70.83;100738.41;146603;576;46012;-66
2023/11/01 04:43:41;;;;;;;;;15.00;11.75;;;;;17.56;70.64;100738.28;146605;576;46010;-67
2023/11/01 04:46:34;;;;;;;;;15.75;12.75;;;;;17.51;71.52;100746.03;146605;589;46016;-67
2023/11/01 04:49:55;;;;;;;;;11.00;11.00;;;;;15.81;70.19;100460.81;146599;625;48021;-67
2023/11/01 04:53:08;;;;;;;;;12.00;12.00;;;;;15.89;70.47;100470.63;146604;628;46016;-67
2023/11/01 04:56:12;;;;;;;;;14.00;11.00;;;;;17.55;71.75;100753.13;146607;651;46014;-68
2023/11/01 04:59:08;;;;;;;;;13.00;11.00;;;;;17.50;71.05;100757.34;146603;563;46012;-67
2023/11/01 05:02:02;;;;;;;;;13.75;13.75;;;;;17.44;71.53;100761.56;146604;584;47010;-66
2023/11/01 05:05:05;;;;;;;;;12.00;11.50;;;;;17.28;71.92;100769.06;146603;594;46017;-66
2023/11/01 05:08:01;;;;;;;;;15.25;12.50;;;;;17.13;72.64;100775.66;146608;589;46010;-67
2023/11/01 05:10:53;;;;;;;;;11.25;11.25;;;;;17.05;73.04;100784.22;146605;580;47035;-68
2023/11/01 05:14:19;;;;;;;;;13.00;10.50;;;;;17.02;72.73;100780.63;146609;620;46020;-67
2023/11/01 05:17:14;;;;;;;;;12.25;11.75;;;;;17.02;72.92;100772.78;146602;577;46914;-68
2023/11/01 05:20:22;;;;;;;;;15.25;13.00;;;;;15.83;72.20;100562.00;146604;569;46010;-69
2023/11/01 05:23:22;;;;;;;;;11.75;10.50;;;;;17.04;73.14;100761.50;146603;589;47016;-68
2023/11/01 05:26:44;;;;;;;;;;;;;;;;;;;;;
2023/11/01 05:29:43;;;;;;;;;12.25;10.00;;;;;17.15;73.06;100763.50;146607;620;46012;-69
2023/11/01 05:32:36;;;;;;;;;14.67;10.33;;;;;17.24;73.00;100776.81;146606;623;47010;-69
2023/11/01 05:35:36;;;;;;;;;9.00;8.00;;;;;17.58;73.16;100778.53;146603;573;47012;-68
2023/11/01 05:38:34;;;;;;;;;9.67;9.00;;;;;18.31;72.04;100786.28;146618;678;46010;-68
2023/11/01 05:41:37;;;;;;;;;12.00;11.00;;;;;19.07;68.26;100774.66;146608;678;47016;-69
2023/11/01 05:44:52;;;;;;;;;;;;;;;;;;;;;
2023/11/01 05:48:19;;;;;;;;;;;;;;;;;;;;;
2023/11/01 05:51:25;;;;;;;;;11.33;11.00;;;;;21.33;62.08;100780.22;146604;593;46020;-67
2023/11/01 05:54:21;;;;;;;;;12.67;8.67;;;;;22.23;61.03;100786.13;146601;611;47013;-67
2023/11/01 05:57:26;;;;;;;;;13.00;12.25;;;;;23.07;58.10;100785.53;146615;656;46020;-67
2023/11/01 06:00:40;;;;;;;;;12.00;10.33;;;;;23.95;56.19;100787.25;146603;590;46037;-67
2023/11/01 06:03:50;;;;;;;;;12.33;12.00;;;;;24.63;54.75;100800.25;146605;575;47021;-68
2023/11/01 06:07:08;;;;;;;;;13.67;11.33;;;;;25.19;52.90;100796.41;146607;582;46016;-68
2023/11/01 06:10:03;;;;;;;;;13.00;10.00;;;;;25.82;50.73;100808.25;146609;625;46021;-67
2023/11/01 06:13:09;;;;;;;;;12.33;9.00;;;;;26.29;48.35;100809.50;146605;574;46918;-68
2023/11/01 06:16:04;;;;;;;;;12.33;12.00;;;;;26.52;47.91;100826.09;146612;614;47020;-68
2023/11/01 06:19:13;;;;;;;;;13.00;11.00;;;;;26.57;48.52;100826.03;146604;588;47014;-67
2023/11/01 06:22:11;;;;;;;;;14.33;12.33;;;;;26.51;48.00;100818.12;146602;640;47020;-69
2023/11/01 06:25:16;;;;;;;;;10.33;10.33;;;;;26.36;50.41;100820.06;146604;590;47014;-69
2023/11/01 06:28:17;;;;;;;;;15.33;13.33;;;;;26.32;46.15;100815.66;146609;649;46020;-67
2023/11/01 06:31:25;;;;;;;;;13.67;11.00;;;;;26.12;50.15;100813.25;146604;610;47916;-67
2023/11/01 06:34:35;;;;;;;;;11.33;10.00;;;;;25.98;51.47;100812.50;146607;638;47021;-68
2023/11/01 06:38:00;;;;;;;;;15.00;13.67;;;;;25.84;50.11;100822.41;146604;591;46920;-69
2023/11/01 06:41:00;;;;;;;;;11.67;10.00;;;;;25.70;50.82;100825.16;146608;596;46027;-68
2023/11/01 06:44:08;;;;;;;;;14.00;12.00;;;;;25.44;49.80;100828.06;146605;651;46014;-68
2023/11/01 06:47:17;;;;;;;;;13.00;12.00;;;;;25.11;52.09;100827.41;146607;615;47010;-68
2023/11/01 06:50:16;;;;;;;;;13.33;12.00;;;;;24.94;52.66;100831.91;146606;570;46016;-69
2023/11/01 06:53:13;;;;;;;;;11.00;11.00;;;;;24.83;52.84;100832.00;146603;638;47010;-68
2023/11/01 06:56:12;;;;;;;;;14.33;13.00;;;;;24.75;53.45;100837.31;146606;595;46016;-68
2023/11/01 06:59:19;;;;;;;;;12.67;11.00;;;;;24.68;54.31;100846.22;146609;633;46010;-68
2023/11/01 07:02:19;;;;;;;;;12.00;12.00;;;;;24.68;54.41;100846.22;146608;605;46016;-68
2023/11/01 07:05:35;;;;;;;;;16.67;14.33;;;;;24.74;54.94;100843.53;146608;681;47014;-69
2023/11/01 07:08:42;;;;;;;;;;;;;;;;;;;;;
2023/11/01 07:11:38;;;;;;;;;21.67;16.00;;;;;24.73;53.54;100854.13;146610;617;46021;-67
2023/11/01 07:14:43;;;;;;;;;17.67;15.33;;;;;24.73;53.46;100865.59;146606;618;46014;-68
2023/11/01 07:17:38;;;;;;;;;19.00;18.75;;;;;24.76;52.79;100875.31;146606;716;47010;-68
2023/11/01 07:20:35;;;;;;;;;17.00;14.67;;;;;24.69;53.63;100863.87;146608;580;46029;-68
2023/11/01 07:23:43;;;;;;;;;18.00;14.67;;;;;24.62;53.87;100865.66;146600;630;47010;-68
2023/11/01 07:26:47;;;;;;;;;16.50;15.25;;;;;23.03;55.26;100615.41;146600;570;47012;-68
2023/11/01 07:29:41;;;;;;;;;19.00;14.67;;;;;24.53;54.53;100883.38;146608;669;46037;-68
2023/11/01 07:33:09;;;;;;;;;19.67;18.00;;;;;24.44;53.34;100881.63;146607;587;46017;-68
2023/11/01 07:36:01;;;;;;;;;17.50;16.00;;;;;24.32;53.88;100885.16;146608;614;46020;-69
2023/11/01 07:39:02;;;;;;;;;20.75;18.25;;;;;24.25;54.31;100880.78;146604;672;46014;-68
2023/11/01 07:42:10;;;;;;;;;;;;;;;;;;;;;
2023/11/01 07:45:09;;;;;;;;;17.67;17.33;;;;;24.22;54.28;100866.66;146606;583;46914;-69
2023/11/01 07:48:05;;;;;;;;;20.67;18.33;;;;;24.29;54.62;100868.41;146606;696;46010;-68
2023/11/01 07:51:09;;;;;;;;;15.00;15.00;;;;;24.35;54.95;100865.72;146605;601;46034;-67
2023/11/01 07:54:38;;;;;;;;;18.00;16.00;;;;;22.95;55.50;100606.59;146600;705;47010;-68
2023/11/01 07:57:39;;;;;;;;;23.00;16.67;;;;;24.63;54.78;100869.19;146605;686;45916;-68
2023/11/01 08:00:38;;;;;;;;;20.75;18.75;;;;;24.75;54.74;100866.50;146611;590;46020;-68
2023/11/01 08:03:34;;;;;;;;;19.33;17.33;;;;;24.89;54.80;100864.66;146606;570;46016;-68
2023/11/01 08:06:34;;;;;;;;;21.75;18.25;;;;;25.14;53.85;100859.25;146606;593;47010;-67
2023/11/01 08:09:31;;;;;;;;;18.33;15.67;;;;;25.31;53.67;100856.47;146603;649;47012;-68
2023/11/01 08:12:29;;;;;;;;;18.50;16.75;;;;;25.30;53.43;100860.03;146608;589;47020;-68
2023/11/01 08:15:27;;;;;;;;;15.75;13.50;;;;;25.23;54.00;100868.91;146604;603;46918;-68
2023/11/01 08:18:28;;;;;;;;;17.67;15.00;;;;;25.16;54.52;100872.50;146608;691;46010;-68
2023/11/01 08:21:26;;;;;;;;;20.50;19.50;;;;;25.07;54.22;100862.78;146603;593;46918;-68
2023/11/01 08:24:21;;;;;;;;;20.00;17.67;;;;;24.99;54.50;100869.94;146603;569;46021;-68
2023/11/01 08:27:16;;;;;;;;;22.50;20.50;;;;;24.94;54.23;100869.06;146603;569;47012;-68
2023/11/01 08:30:16;;;;;;;;;26.00;22.25;;;;;24.90;54.62;100881.47;146607;695;47010;-69
2023/11/01 08:33:16;;;;;;;;;20.75;20.00;;;;;24.81;54.65;100881.50;146601;604;46016;-68
2023/11/01 08:36:25;;;;;;;;;34.75;30.50;;;;;24.75;55.89;100886.84;146609;602;47020;-68
2023/11/01 08:39:35;;;;;;;;;50.75;38.75;;;;;24.67;55.77;100881.53;146604;599;46039;-68
2023/11/01 08:42:35;;;;;;;;;49.50;38.75;;;;;24.63;55.95;100882.44;146609;589;47014;-68
2023/11/01 08:45:39;;;;;;;;;47.75;36.25;;;;;24.59;55.92;100889.53;146605;628;46017;-69
2023/11/01 08:48:53;;;;;;;;;44.00;32.75;;;;;23.71;56.67;100745.84;146607;589;46010;-69
2023/11/01 08:51:50;;;;;;;;;42.00;33.75;;;;;24.59;56.03;100889.53;146606;580;46019;-68
2023/11/01 08:55:06;;;;;;;;;42.25;34.00;;;;;24.66;56.30;100891.28;146601;630;47020;-68
2023/11/01 08:58:03;;;;;;;;;46.50;36.00;;;;;24.76;55.78;100885.94;146605;598;46919;-68
2023/11/01 09:00:58;;;;;;;;;37.25;31.50;;;;;24.84;55.93;100887.66;146607;571;46020;-68
2023/11/01 09:03:56;;;;;;;;;20.25;18.25;;;;;24.93;53.31;100877.91;146603;651;47014;-68
2023/11/01 09:06:57;;;;;;;;;22.75;19.50;;;;;25.00;54.06;100877.84;146607;565;47020;-68
2023/11/01 09:10:00;;;;;;;;;14.50;13.75;;;;;25.17;54.16;100883.12;146602;569;46016;-69
2023/11/01 09:13:09;;;;;;;;;17.33;12.33;;;;;25.34;50.96;100883.00;146608;614;46020;-68
2023/11/01 09:16:33;;;;;;;;;14.75;12.50;;;;;25.46;49.90;100874.06;146603;686;46016;-67
2023/11/01 09:19:28;;;;;;;;;14.00;12.00;;;;;25.45;50.02;100866.97;146632;639;45030;-67
2023/11/01 09:22:33;;;;;;;;;16.00;11.00;;;;;25.42;51.47;100867.91;146634;604;46012;-69
2023/11/01 09:25:38;;;;;;;;;11.33;9.33;;;;;25.47;50.40;100867.84;146632;582;46014;-68
2023/11/01 09:28:58;;;;;;;;;10.33;10.33;;;;;25.70;50.60;100862.34;146631;564;45018;-69
2023/11/01 09:31:56;;;;;;;;;9.67;9.67;;;;;25.91;50.35;100856.88;146636;639;45023;-68
2023/11/01 09:35:20;;;;;;;;;7.00;3.33;;;;;24.53;47.02;100571.47;146630;616;46016;-68
2023/11/01 09:38:25;;;;;;;;;4.00;3.00;;;;;25.55;46.19;100720.88;146634;611;46021;-69
2023/11/01 09:41:34;;;;;;;;;4.00;3.00;;;;;26.37;46.01;100842.22;146619;613;47012;-69
2023/11/01 09:44:35;;;;;;;;;2.00;1.00;;;;;26.49;43.66;100829.69;146638;590;45010;-68
2023/11/01 09:47:39;;;;;;;;;1.67;1.00;;;;;26.58;44.58;100831.34;146635;614;45012;-68
2023/11/01 09:50:39;;;;;;;;;1.67;1.67;;;;;26.72;45.30;100832.03;146635;641;46010;-69
2023/11/01 09:53:42;;;;;;;;;1.50;1.00;;;;;26.95;44.44;100830.84;146635;597;45020;-69
2023/11/01 09:57:15;;;;;;;;;2.00;0.67;;;;;27.10;45.39;100833.28;146631;736;46010;-68
2023/11/01 10:00:15;;;;;;;;;1.33;0.00;;;;;27.26;44.71;100830.37;146632;576;45917;-68
2023/11/01 10:03:32;;;;;;;;;0.00;0.00;;;;;27.44;43.81;100819.44;146632;598;45010;-69
2023/11/01 10:06:48;;;;;;;;;0.33;0.00;;;;;26.05;42.03;100556.50;146632;574;45016;-68
2023/11/01 10:09:56;;;;;;;;;;;;;;;;;;;;;
2023/11/01 10:12:52;;;;;;;;;1.33;1.00;;;;;27.53;43.60;100799.75;146629;683;46010;-67
2023/11/01 10:15:47;;;;;;;;;2.67;1.67;;;;;27.54;42.07;100797.09;146633;592;46021;-68
2023/11/01 10:18:45;;;;;;;;;3.00;1.00;;;;;27.53;41.60;100792.66;146618;692;46012;-68
2023/11/01 10:21:44;;;;;;;;;1.00;1.00;;;;;27.57;43.38;100785.47;146615;627;46021;-68
2023/11/01 10:24:54;;;;;;;;;0.33;0.00;;;;;27.66;42.42;100787.97;146615;583;46016;-67
2023/11/01 10:27:51;;;;;;;;;1.00;0.00;;;;;27.71;41.09;100782.56;146606;596;46020;-68
2023/11/01 10:31:13;;;;;;;;;1.00;0.00;;;;;27.72;42.48;100782.53;146612;595;46012;-69
2023/11/01 10:34:44;;;;;;;;;0.67;0.00;;;;;26.25;41.95;100537.56;146615;563;46010;-68
2023/11/01 10:37:42;;;;;;;;;0.00;0.00;;;;;27.52;42.50;100787.38;146610;723;47012;-67
2023/11/01 10:40:41;;;;;;;;;1.00;0.00;;;;;27.42;42.17;100793.75;146609;701;47014;-68
2023/11/01 10:43:43;;;;;;;;;1.00;0.00;;;;;27.32;42.33;100790.34;146609;682;47016;-68
2023/11/01 10:46:41;;;;;;;;;2.00;1.00;;;;;27.13;42.30;100785.31;146615;627;47010;-68
2023/11/01 10:49:42;;;;;;;;;0.33;0.33;;;;;26.95;42.92;100791.81;146613;710;46017;-67
2023/11/01 10:52:57;;;;;;;;;1.00;0.00;;;;;25.33;43.24;100550.34;146614;637;47020;-68
2023/11/01 10:56:06;;;;;;;;;0.00;0.00;;;;;26.54;42.51;100789.72;146613;566;46028;-68
2023/11/01 10:59:29;;;;;;;;;1.00;1.00;;;;;26.39;44.13;100792.56;146606;564;46020;-66
2023/11/01 11:03:01;;;;;;;;;1.00;0.00;;;;;26.21;44.03;100794.53;146610;640;46039;-68
2023/11/01 11:06:17;;;;;;;;;3.33;2.00;;;;;26.09;44.69;100780.53;146617;591;46021;-67
2023/11/01 11:09:33;;;;;;;;;1.33;1.33;;;;;25.98;46.54;100776.22;146611;570;46014;-69
2023/11/01 11:12:43;;;;;;;;;0.33;0.33;;;;;25.93;45.63;100771.84;146617;601;46041;-67
2023/11/01 11:16:18;;;;;;;;;1.00;1.00;;;;;24.41;45.63;100531.78;146612;643;47014;-67
2023/11/01 11:19:30;;;;;;;;;;;;;;;;;;;;;
2023/11/01 11:22:26;;;;;;;;;0.00;0.00;;;;;25.75;45.08;100781.72;146612;563;46016;-67
2023/11/01 11:26:03;;;;;;;;;0.00;0.00;;;;;25.79;46.11;100774.59;146618;647;46010;-67
2023/11/01 11:29:04;;;;;;;;;2.00;1.00;;;;;25.87;45.64;100780.75;146610;565;46017;-68
2023/11/01 11:32:10;;;;;;;;;2.00;0.00;;;;;25.86;45.36;100768.38;146610;573;47010;-67
2023/11/01 11:35:25;;;;;;;;;0.00;0.00;;;;;25.84;46.09;100767.50;146612;583;47016;-68
2023/11/01 11:38:51;;;;;;;;;2.00;0.00;;;;;25.84;48.18;100767.50;146618;636;46020;-68
2023/11/01 11:41:51;;;;;;;;;1.00;1.00;;;;;25.90;46.65;100763.91;146612;577;47916;-68
2023/11/01 11:45:09;;;;;;;;;1.00;1.00;;;;;24.73;47.55;100538.59;146608;651;47010;-67
2023/11/01 11:48:54;;;;;;;;;2.00;1.00;;;;;24.20;48.39;100424.22;146609;697;47015;-68
2023/11/01 11:52:11;;;;;;;;;3.00;2.00;;;;;24.72;48.46;100487.34;146616;623;46020;-67
2023/11/01 11:55:24;;;;;;;;;4.33;3.67;;;;;26.34;46.32;100752.75;146612;581;46020;-67
2023/11/01 11:58:22;;;;;;;;;3.00;3.00;;;;;26.37;46.48;100746.50;146614;618;47020;-68
2023/11/01 12:01:37;;;;;;;;;5.00;3.67;;;;;26.35;47.89;100745.63;146608;574;48012;-68
2023/11/01 12:04:42;;;;;;;;;3.67;3.67;;;;;26.33;47.56;100745.66;146605;622;46010;-68
2023/11/01 12:07:38;;;;;;;;;5.00;4.00;;;;;26.33;46.70;100747.47;146610;622;46915;-67
2023/11/01 12:11:04;;;;;;;;;4.00;2.67;;;;;26.30;48.21;100745.72;146618;651;46021;-67
2023/11/01 12:14:01;;;;;;;;;3.67;3.00;;;;;26.23;45.65;100751.97;146611;660;46017;-69
2023/11/01 12:16:58;;;;;;;;;2.33;2.00;;;;;26.17;46.66;100741.47;146614;596;47010;-69
2023/11/01 12:19:54;;;;;;;;;2.00;2.00;;;;;26.13;47.23;100745.03;146632;574;46013;-70
2023/11/01 12:22:57;;;;;;;;;3.00;2.00;;;;;26.14;46.59;100745.03;146636;592;46010;-71
2023/11/01 12:26:34;;;;;;;;;3.33;3.00;;;;;26.30;47.48;100742.19;146632;610;45016;-68
2023/11/01 12:29:42;;;;;;;;;1.33;1.00;;;;;26.44;45.71;100741.06;146636;565;46010;-68
2023/11/01 12:32:44;;;;;;;;;3.00;3.00;;;;;26.62;46.92;100747.06;146632;613;45915;-68
2023/11/01 12:36:01;;;;;;;;;2.00;2.00;;;;;26.82;47.26;100741.44;146630;586;46010;-68
2023/11/01 12:38:59;;;;;;;;;2.00;2.00;;;;;27.03;46.43;100748.22;146628;590;46012;-68
2023/11/01 12:42:39;;;;;;;;;4.67;2.33;;;;;27.20;45.88;100751.53;146628;617;46021;-70
2023/11/01 12:45:42;;;;;;;;;2.00;2.00;;;;;27.30;43.69;100746.91;146633;617;46012;-69
2023/11/01 12:48:52;;;;;;;;;5.00;3.00;;;;;27.33;44.86;100744.19;146636;656;45021;-69
2023/11/01 12:51:55;;;;;;;;;5.00;4.67;;;;;27.33;43.73;100744.19;146634;569;46016;-68
2023/11/01 12:55:02;;;;;;;;;2.00;2.00;;;;;27.29;44.55;100742.47;146637;715;45020;-70
2023/11/01 12:58:09;;;;;;;;;5.67;3.00;;;;;27.17;42.51;100740.94;146633;599;46012;-69
2023/11/01 13:01:22;;;;;;;;;;;;;;;;;;;;;
2023/11/01 13:04:37;;;;;;;;;3.33;2.33;;;;;26.83;45.25;100729.91;146634;674;45014;-70
2023/11/01 13:07:45;;;;;;;;;3.67;3.67;;;;;26.63;43.99;100731.06;146630;591;45010;-68
2023/11/01 13:10:42;;;;;;;;;5.00;2.00;;;;;26.42;45.01;100728.72;146627;625;46916;-69
2023/11/01 13:13:39;;;;;;;;;4.00;2.00;;;;;26.24;44.77;100725.41;146635;610;45020;-68
2023/11/01 13:16:33;;;;;;;;;3.67;2.67;;;;;26.11;45.80;100721.16;146634;684;45016;-70
2023/11/01 13:19:35;;;;;;;;;4.00;3.00;;;;;26.03;45.61;100718.56;146633;622;45021;-69
2023/11/01 13:22:36;;;;;;;;;3.00;3.00;;;;;25.97;46.10;100717.78;146635;583;45915;-69
2023/11/01 13:25:38;;;;;;;;;2.33;2.33;;;;;25.98;46.00;100704.50;146635;602;46010;-69
2023/11/01 13:28:34;;;;;;;;;5.00;3.00;;;;;26.07;46.71;100710.56;146633;566;46012;-69
2023/11/01 13:31:49;;;;;;;;;6.33;4.00;;;;;26.17;47.67;100710.44;146623;577;46919;-69
2023/11/01 13:35:06;;;;;;;;;8.00;6.33;;;;;24.94;47.11;100469.41;146634;689;45013;-67
2023/11/01 13:38:09;;;;;;;;;3.33;3.00;;;;;26.43;46.23;100701.22;146624;592;46010;-68
2023/11/01 13:41:11;;;;;;;;;2.00;2.00;;;;;26.45;44.45;100702.97;146629;596;46010;-69
2023/11/01 13:44:09;;;;;;;;;3.00;3.00;;;;;26.47;45.75;100701.13;146635;610;45014;-69
2023/11/01 13:47:04;;;;;;;;;3.00;3.00;;;;;26.48;46.53;100700.28;146634;626;45915;-69
2023/11/01 13:50:17;;;;;;;;;4.00;3.00;;;;;25.04;48.41;100441.00;146634;585;46025;-69
2023/11/01 13:53:16;;;;;;;;;4.00;4.00;;;;;26.54;46.03;100686.00;146635;677;45012;-70
2023/11/01 13:56:29;;;;;;;;;;;;;;;;;;;;;
2023/11/01 13:59:34;;;;;;;;;3.67;2.67;;;;;26.57;47.53;100690.41;146625;583;46014;-68
2023/11/01 14:02:46;;;;;;;;;;;;;;;;;;;;;
2023/11/01 14:05:43;;;;;;;;;5.67;4.00;;;;;26.56;45.81;100697.50;146635;599;45016;-67
2023/11/01 14:08:45;;;;;;;;;5.33;4.33;;;;;26.45;45.35;100687.00;146631;659;46010;-67
2023/11/01 14:12:03;;;;;;;;;5.00;5.00;;;;;26.32;46.12;100690.72;146627;590;46014;-68
2023/11/01 14:15:15;;;;;;;;;;;;;;;;;;;;;
2023/11/01 14:18:28;;;;;;;;;4.00;3.00;;;;;26.10;47.28;100695.47;146618;583;46012;-68
2023/11/01 14:21:41;;;;;;;;;4.00;4.00;;;;;26.03;47.05;100696.44;146617;571;46020;-69
2023/11/01 14:24:38;;;;;;;;;4.33;3.00;;;;;25.96;46.63;100698.31;146611;578;46017;-70
2023/11/01 14:27:41;;;;;;;;;4.00;4.00;;;;;25.90;47.58;100690.41;146616;595;46037;-68
2023/11/01 14:30:49;;;;;;;;;6.00;4.33;;;;;25.84;47.34;100690.47;146612;563;46012;-68
2023/11/01 14:33:50;;;;;;;;;7.33;7.33;;;;;25.73;50.75;100689.69;146614;584;47021;-69
2023/11/01 14:36:54;;;;;;;;;12.33;8.67;;;;;25.58;51.60;100688.09;146613;615;46034;-68